createdAt,value
2019-02-19T00:00:51.474Z,0.80
2019-02-19T00:01:57.798Z,0.80
2019-02-19T00:03:02.770Z,0.70
2019-02-19T00:04:07.534Z,0.70
2019-02-19T00:05:12.496Z,0.60
2019-02-19T00:06:17.385Z,0.60
2019-02-19T00:07:22.240Z,0.60
2019-02-19T00:08:27.108Z,0.60
2019-02-19T00:09:32.112Z,0.60
2019-02-19T00:10:36.973Z,0.60
2019-02-19T00:11:41.877Z,0.50
2019-02-19T00:12:46.649Z,0.50
2019-02-19T00:13:51.650Z,0.50
2019-02-19T00:14:56.620Z,0.50
2019-02-19T00:16:01.672Z,0.40
2019-02-19T00:17:06.533Z,0.40
2019-02-19T00:18:11.533Z,0.40
2019-02-19T00:19:16.252Z,0.40
2019-02-19T00:20:21.148Z,0.30
2019-02-19T00:21:26.036Z,0.30
2019-02-19T00:22:30.897Z,0.30
2019-02-19T00:23:35.649Z,0.30
2019-02-19T00:24:40.585Z,0.30
2019-02-19T00:25:45.474Z,0.20
2019-02-19T00:26:50.396Z,0.20
2019-02-19T00:27:55.152Z,0.20
2019-02-19T00:28:59.978Z,0.20
2019-02-19T00:30:04.924Z,0.10
2019-02-19T00:31:09.820Z,0.10
2019-02-19T00:32:14.713Z,0.10
2019-02-19T00:33:19.492Z,0.00
2019-02-19T00:34:24.452Z,0.00
2019-02-19T00:35:29.449Z,0.10
2019-02-19T00:36:34.500Z,0.00
2019-02-19T00:37:39.519Z,0.00
2019-02-19T00:38:44.554Z,0.00
2019-02-19T00:39:49.344Z,-0.10
2019-02-19T00:40:54.313Z,-0.10
2019-02-19T00:41:59.309Z,-0.10
2019-02-19T00:43:04.236Z,-0.10
2019-02-19T00:44:09.233Z,-0.10
2019-02-19T00:45:16.682Z,-0.10
2019-02-19T00:46:20.648Z,-0.10
2019-02-19T00:47:25.483Z,-0.10
2019-02-19T00:48:30.404Z,-0.10
2019-02-19T00:49:35.340Z,-0.10
2019-02-19T00:50:40.324Z,-0.20
2019-02-19T00:51:45.096Z,-0.10
2019-02-19T00:52:50.084Z,-0.20
2019-02-19T00:53:55.009Z,-0.20
2019-02-19T00:55:00.040Z,-0.20
2019-02-19T00:56:05.114Z,-0.20
2019-02-19T00:57:09.868Z,-0.20
2019-02-19T00:58:15.094Z,-0.20
2019-02-19T00:59:20.060Z,-0.20
2019-02-19T01:00:25.030Z,-0.30
2019-02-19T01:01:29.891Z,-0.30
2019-02-19T01:02:34.748Z,-0.30
2019-02-19T01:03:40.036Z,-0.30
2019-02-19T01:04:44.924Z,-0.30
2019-02-19T01:05:49.716Z,-0.30
2019-02-19T01:06:54.704Z,-0.30
2019-02-19T01:07:59.964Z,-0.30
2019-02-19T01:09:06.788Z,-0.30
2019-02-19T01:10:11.879Z,-0.40
2019-02-19T01:11:16.912Z,-0.40
2019-02-19T01:12:21.817Z,-0.40
2019-02-19T01:13:26.576Z,-0.40
2019-02-19T01:14:31.504Z,-0.40
2019-02-19T01:15:36.347Z,-0.40
2019-02-19T01:16:41.221Z,-0.40
2019-02-19T01:17:46.100Z,-0.40
2019-02-19T01:18:50.990Z,-0.50
2019-02-19T01:19:55.852Z,-0.50
2019-02-19T01:21:00.960Z,-0.50
2019-02-19T01:22:05.882Z,-0.50
2019-02-19T01:23:10.757Z,-0.50
2019-02-19T01:24:15.611Z,-0.50
2019-02-19T01:25:20.605Z,-0.50
2019-02-19T01:26:26.675Z,-0.60
2019-02-19T01:27:31.424Z,-0.60
2019-02-19T01:28:36.401Z,-0.50
2019-02-19T01:29:41.250Z,-0.40
2019-02-19T01:30:46.193Z,-0.30
2019-02-19T01:31:51.076Z,-0.20
2019-02-19T01:32:55.957Z,-0.20
2019-02-19T01:34:00.696Z,-0.20
2019-02-19T01:35:06.364Z,-0.10
2019-02-19T01:36:11.356Z,0.00
2019-02-19T01:37:16.219Z,0.10
2019-02-19T01:38:20.960Z,0.20
2019-02-19T01:39:26.133Z,0.30
2019-02-19T01:40:30.992Z,0.30
2019-02-19T01:41:35.735Z,0.30
2019-02-19T01:42:40.500Z,0.20
2019-02-19T01:43:45.364Z,0.40
2019-02-19T01:44:50.227Z,0.50
2019-02-19T01:45:55.109Z,0.60
2019-02-19T01:46:59.976Z,0.70
2019-02-19T01:48:04.955Z,0.90
2019-02-19T01:49:10.324Z,1.00
2019-02-19T01:50:15.184Z,1.10
2019-02-19T01:51:20.032Z,1.10
2019-02-19T01:52:24.952Z,1.20
2019-02-19T01:53:30.036Z,1.20
2019-02-19T01:54:34.896Z,1.30
2019-02-19T01:55:39.668Z,1.30
2019-02-19T01:56:44.640Z,1.40
2019-02-19T01:57:49.362Z,1.40
2019-02-19T01:58:54.877Z,1.40
2019-02-19T01:59:59.736Z,1.40
2019-02-19T02:01:04.733Z,1.40
2019-02-19T02:02:09.474Z,1.30
2019-02-19T02:03:14.588Z,1.30
2019-02-19T02:04:19.484Z,1.20
2019-02-19T02:05:24.379Z,1.20
2019-02-19T02:06:29.090Z,1.20
2019-02-19T02:07:33.957Z,1.10
2019-02-19T02:08:38.789Z,1.10
2019-02-19T02:09:43.688Z,1.00
2019-02-19T02:10:48.432Z,1.00
2019-02-19T02:11:54.264Z,1.00
2019-02-19T02:12:59.156Z,1.00
2019-02-19T02:14:04.156Z,0.90
2019-02-19T02:15:09.089Z,0.90
2019-02-19T02:16:13.876Z,0.90
2019-02-19T02:17:18.741Z,0.90
2019-02-19T02:18:23.471Z,0.80
2019-02-19T02:19:28.243Z,0.80
2019-02-19T02:20:33.503Z,0.70
2019-02-19T02:21:38.348Z,0.70
2019-02-19T02:22:43.128Z,0.70
2019-02-19T02:23:47.866Z,0.70
2019-02-19T02:24:52.761Z,0.70
2019-02-19T02:25:57.652Z,0.60
2019-02-19T02:27:02.398Z,0.50
2019-02-19T02:28:07.181Z,0.40
2019-02-19T02:29:11.959Z,0.40
2019-02-19T02:30:16.858Z,0.30
2019-02-19T02:31:21.777Z,0.30
2019-02-19T02:32:26.518Z,0.30
2019-02-19T02:33:31.392Z,0.20
2019-02-19T02:34:36.158Z,0.20
2019-02-19T02:35:41.036Z,0.10
2019-02-19T02:36:46.025Z,0.10
2019-02-19T02:37:50.896Z,0.00
2019-02-19T02:38:55.732Z,0.00
2019-02-19T02:40:00.683Z,0.10
2019-02-19T02:41:05.446Z,0.30
2019-02-19T02:42:10.397Z,0.50
2019-02-19T02:43:15.265Z,0.60
2019-02-19T02:44:19.989Z,0.70
2019-02-19T02:45:24.792Z,0.70
2019-02-19T02:46:29.680Z,0.70
2019-02-19T02:47:34.549Z,0.80
2019-02-19T02:48:39.284Z,0.80
2019-02-19T02:49:45.229Z,0.80
2019-02-19T02:50:50.208Z,0.80
2019-02-19T02:51:55.073Z,0.70
2019-02-19T02:52:59.895Z,0.60
2019-02-19T02:54:04.844Z,0.50
2019-02-19T02:55:09.905Z,0.40
2019-02-19T02:56:14.720Z,0.30
2019-02-19T02:57:19.592Z,0.20
2019-02-19T02:58:24.522Z,0.20
2019-02-19T02:59:29.377Z,0.10
2019-02-19T03:00:34.129Z,0.10
2019-02-19T03:01:38.993Z,0.00
2019-02-19T03:02:43.761Z,-0.10
2019-02-19T03:03:48.501Z,-0.10
2019-02-19T03:04:53.345Z,-0.20
2019-02-19T03:06:03.499Z,-0.20
2019-02-19T03:07:30.045Z,-0.20
2019-02-19T03:08:34.801Z,-0.20
2019-02-19T03:09:39.677Z,-0.20
2019-02-19T03:10:44.581Z,-0.20
2019-02-19T03:11:49.457Z,-0.20
2019-02-19T03:12:54.244Z,-0.20
2019-02-19T03:13:59.136Z,-0.20
2019-02-19T03:15:04.597Z,-0.30
2019-02-19T03:16:09.424Z,-0.30
2019-02-19T03:17:14.416Z,-0.30
2019-02-19T03:18:19.241Z,-0.40
2019-02-19T03:19:24.107Z,-0.40
2019-02-19T03:20:28.860Z,-0.50
2019-02-19T03:21:33.833Z,-0.50
2019-02-19T03:22:38.723Z,-0.50
2019-02-19T03:23:43.640Z,-0.50
2019-02-19T03:24:48.489Z,-0.50
2019-02-19T03:25:53.265Z,-0.50
2019-02-19T03:26:57.989Z,-0.50
2019-02-19T03:28:02.873Z,-0.50
2019-02-19T03:29:07.708Z,-0.50
2019-02-19T03:30:12.554Z,-0.50
2019-02-19T03:31:17.314Z,-0.50
2019-02-19T03:32:22.201Z,-0.60
2019-02-19T03:33:27.083Z,-0.60
2019-02-19T03:34:31.930Z,-0.60
2019-02-19T03:35:36.679Z,-0.60
2019-02-19T03:36:41.696Z,-0.60
2019-02-19T03:37:46.438Z,-0.60
2019-02-19T03:38:51.296Z,-0.70
2019-02-19T03:39:56.081Z,-0.70
2019-02-19T03:41:00.991Z,-0.70
2019-02-19T03:42:06.201Z,-0.70
2019-02-19T03:43:11.043Z,-0.70
2019-02-19T03:44:15.937Z,-0.70
2019-02-19T03:45:20.789Z,-0.70
2019-02-19T03:46:25.696Z,-0.70
2019-02-19T03:47:30.575Z,-0.70
2019-02-19T03:48:35.339Z,-0.70
2019-02-19T03:49:40.086Z,-0.70
2019-02-19T03:50:44.966Z,-0.80
2019-02-19T03:51:49.830Z,-0.80
2019-02-19T03:52:54.580Z,-0.80
2019-02-19T03:53:59.549Z,-0.80
2019-02-19T03:55:04.493Z,-0.80
2019-02-19T03:56:09.284Z,-0.80
2019-02-19T03:57:14.132Z,-0.80
2019-02-19T03:58:19.107Z,-0.80
2019-02-19T03:59:23.933Z,-0.80
2019-02-19T04:00:28.654Z,-0.80
2019-02-19T04:01:33.744Z,-0.80
2019-02-19T04:02:38.561Z,-0.80
2019-02-19T04:03:43.604Z,-0.80
2019-02-19T04:04:48.645Z,-0.80
2019-02-19T04:05:53.562Z,-0.80
2019-02-19T04:06:58.289Z,-0.80
2019-02-19T04:08:03.301Z,-0.90
2019-02-19T04:09:08.293Z,-0.90
2019-02-19T04:10:13.145Z,-0.90
2019-02-19T04:11:17.932Z,-0.90
2019-02-19T04:12:23.695Z,-0.90
2019-02-19T04:13:28.533Z,-0.90
2019-02-19T04:14:33.304Z,-0.80
2019-02-19T04:15:38.317Z,-0.80
2019-02-19T04:16:43.215Z,-0.80
2019-02-19T04:17:48.057Z,-0.80
2019-02-19T04:18:52.799Z,-0.70
2019-02-19T04:19:57.662Z,-0.70
2019-02-19T04:21:02.512Z,-0.70
2019-02-19T04:22:07.664Z,-0.70
2019-02-19T04:23:12.423Z,-0.60
2019-02-19T04:24:17.268Z,-0.60
2019-02-19T04:25:22.128Z,-0.70
2019-02-19T04:26:27.165Z,-0.70
2019-02-19T04:27:32.138Z,-0.70
2019-02-19T04:28:36.901Z,-0.70
2019-02-19T04:29:41.686Z,-0.60
2019-02-19T04:30:46.412Z,-0.60
2019-02-19T04:31:51.332Z,-0.60
2019-02-19T04:32:56.199Z,-0.70
2019-02-19T04:34:00.968Z,-0.60
2019-02-19T04:35:06.180Z,-0.60
2019-02-19T04:36:11.226Z,-0.60
2019-02-19T04:37:16.087Z,-0.70
2019-02-19T04:38:20.969Z,-0.70
2019-02-19T04:39:25.709Z,-0.70
2019-02-19T04:40:30.684Z,-0.70
2019-02-19T04:41:35.578Z,-0.70
2019-02-19T04:42:40.401Z,-0.80
2019-02-19T04:43:45.140Z,-0.70
2019-02-19T04:44:49.997Z,-0.80
2019-02-19T04:45:54.891Z,-0.80
2019-02-19T04:46:59.692Z,-0.80
2019-02-19T04:48:04.484Z,-0.80
2019-02-19T04:49:09.496Z,-0.90
2019-02-19T04:50:14.407Z,-0.90
2019-02-19T04:51:19.404Z,-0.90
2019-02-19T04:52:24.149Z,-0.90
2019-02-19T04:53:29.028Z,-0.90
2019-02-19T04:54:33.892Z,-0.90
2019-02-19T04:55:38.788Z,-0.90
2019-02-19T04:56:43.708Z,-0.90
2019-02-19T04:57:48.436Z,-0.90
2019-02-19T04:58:53.312Z,-0.90
2019-02-19T04:59:58.185Z,-0.90
2019-02-19T05:01:02.985Z,-0.90
2019-02-19T05:02:08.030Z,-0.80
2019-02-19T05:03:12.872Z,-0.80
2019-02-19T05:04:17.758Z,-0.80
2019-02-19T05:05:22.528Z,-0.80
2019-02-19T05:06:27.410Z,-0.70
2019-02-19T05:07:32.314Z,-0.70
2019-02-19T05:08:37.169Z,-0.80
2019-02-19T05:09:41.943Z,-0.80
2019-02-19T05:10:47.224Z,-0.80
2019-02-19T05:11:52.129Z,-0.80
2019-02-19T05:12:56.889Z,-0.80
2019-02-19T05:14:01.682Z,-0.80
2019-02-19T05:15:07.060Z,-0.70
2019-02-19T05:16:12.025Z,-0.80
2019-02-19T05:17:16.933Z,-0.70
2019-02-19T05:18:21.704Z,-0.80
2019-02-19T05:19:26.654Z,-0.80
2019-02-19T05:20:31.386Z,-0.80
2019-02-19T05:21:36.330Z,-0.80
2019-02-19T05:22:41.223Z,-0.80
2019-02-19T05:23:46.216Z,-0.70
2019-02-19T05:24:50.955Z,-0.70
2019-02-19T05:25:56.006Z,-0.60
2019-02-19T05:27:00.752Z,-0.60
2019-02-19T05:28:05.636Z,-0.70
2019-02-19T05:29:11.063Z,-0.70
2019-02-19T05:30:15.956Z,-0.70
2019-02-19T05:31:20.832Z,-0.80
2019-02-19T05:32:25.757Z,-0.80
2019-02-19T05:33:30.679Z,-0.80
2019-02-19T05:34:35.584Z,-0.90
2019-02-19T05:35:40.574Z,-0.90
2019-02-19T05:36:45.424Z,-0.90
2019-02-19T05:37:50.365Z,-0.80
2019-02-19T05:38:55.276Z,-0.90
2019-02-19T05:40:00.148Z,-0.90
2019-02-19T05:41:05.199Z,-0.80
2019-02-19T05:42:09.981Z,-0.80
2019-02-19T05:43:14.857Z,-0.90
2019-02-19T05:44:19.870Z,-0.90
2019-02-19T05:45:24.752Z,-0.90
2019-02-19T05:46:29.672Z,-0.90
2019-02-19T05:47:35.012Z,-0.90
2019-02-19T05:48:39.993Z,-0.90
2019-02-19T05:49:45.068Z,-0.90
2019-02-19T05:50:50.088Z,-0.90
2019-02-19T05:51:55.094Z,-0.90
2019-02-19T05:52:59.979Z,-0.90
2019-02-19T05:54:04.908Z,-0.80
2019-02-19T05:55:09.916Z,-0.80
2019-02-19T05:56:15.033Z,-0.70
2019-02-19T05:57:19.968Z,-0.70
2019-02-19T05:58:24.829Z,-0.70
2019-02-19T05:59:29.578Z,-0.70
2019-02-19T06:00:34.333Z,-0.70
2019-02-19T06:01:39.138Z,-0.70
2019-02-19T06:02:43.979Z,-0.70
2019-02-19T06:03:48.699Z,-0.70
2019-02-19T06:04:53.444Z,-0.70
2019-02-19T06:05:58.294Z,-0.70
2019-02-19T06:07:03.060Z,-0.80
2019-02-19T06:08:07.974Z,-0.70
2019-02-19T06:09:12.842Z,-0.80
2019-02-19T06:10:17.758Z,-0.80
2019-02-19T06:11:22.642Z,-0.80
2019-02-19T06:12:27.601Z,-0.80
2019-02-19T06:13:32.440Z,-0.80
2019-02-19T06:14:37.201Z,-0.80
2019-02-19T06:15:41.933Z,-0.70
2019-02-19T06:16:46.669Z,-0.70
2019-02-19T06:17:51.461Z,-0.70
2019-02-19T06:18:56.215Z,-0.70
2019-02-19T06:20:00.921Z,-0.70
2019-02-19T06:21:05.657Z,-0.80
2019-02-19T06:22:10.402Z,-0.70
2019-02-19T06:23:15.152Z,-0.70
2019-02-19T06:24:19.996Z,-0.70
2019-02-19T06:25:24.829Z,-0.70
2019-02-19T06:26:29.519Z,-0.70
2019-02-19T06:27:34.809Z,-0.70
2019-02-19T06:28:39.556Z,-0.60
2019-02-19T06:29:44.306Z,-0.70
2019-02-19T06:30:48.995Z,-0.60
2019-02-19T06:31:53.727Z,-0.60
2019-02-19T06:32:58.510Z,-0.50
2019-02-19T06:34:03.249Z,-0.40
2019-02-19T06:35:08.123Z,-0.30
2019-02-19T06:36:12.830Z,-0.20
2019-02-19T06:37:17.588Z,-0.10
2019-02-19T06:38:22.370Z,0.00
2019-02-19T06:39:27.100Z,0.20
2019-02-19T06:40:31.920Z,0.20
2019-02-19T06:41:36.760Z,0.40
2019-02-19T06:42:41.600Z,0.50
2019-02-19T06:43:46.404Z,0.50
2019-02-19T06:44:51.212Z,0.50
2019-02-19T06:45:55.979Z,0.60
2019-02-19T06:47:06.673Z,0.60
2019-02-19T06:48:07.315Z,0.60
2019-02-19T06:49:12.050Z,0.60
2019-02-19T06:50:16.750Z,0.60
2019-02-19T06:51:21.489Z,0.70
2019-02-19T06:52:26.202Z,0.70
2019-02-19T06:53:30.956Z,0.70
2019-02-19T06:54:35.727Z,0.70
2019-02-19T06:55:40.449Z,0.70
2019-02-19T06:56:45.161Z,0.70
2019-02-19T06:57:49.893Z,0.80
2019-02-19T06:58:54.641Z,0.80
2019-02-19T06:59:59.384Z,1.00
2019-02-19T07:01:04.174Z,1.10
2019-02-19T07:02:36.864Z,1.20
2019-02-19T07:04:00.465Z,1.40
2019-02-19T07:05:08.217Z,1.40
2019-02-19T07:06:12.954Z,1.40
2019-02-19T07:07:17.671Z,1.50
2019-02-19T07:08:22.437Z,1.70
2019-02-19T07:09:27.173Z,1.70
2019-02-19T07:10:31.870Z,1.80
2019-02-19T07:11:36.620Z,1.90
2019-02-19T07:12:41.360Z,2.00
2019-02-19T07:13:46.144Z,2.10
2019-02-19T07:14:50.901Z,2.20
2019-02-19T07:15:55.665Z,2.30
2019-02-19T07:17:00.412Z,2.30
2019-02-19T07:18:05.183Z,2.40
2019-02-19T07:19:09.999Z,2.40
2019-02-19T07:20:14.808Z,2.50
2019-02-19T07:21:19.756Z,2.60
2019-02-19T07:22:24.569Z,2.60
2019-02-19T07:23:29.363Z,2.70
2019-02-19T07:24:34.209Z,2.70
2019-02-19T07:25:39.097Z,2.80
2019-02-19T07:26:43.877Z,2.80
2019-02-19T07:27:48.638Z,2.80
2019-02-19T07:28:53.532Z,2.90
2019-02-19T07:29:58.588Z,3.00
2019-02-19T07:31:03.348Z,3.10
2019-02-19T07:32:08.153Z,3.20
2019-02-19T07:33:12.929Z,3.30
2019-02-19T07:34:17.722Z,3.40
2019-02-19T07:35:22.411Z,3.50
2019-02-19T07:36:27.130Z,3.50
2019-02-19T07:37:31.872Z,3.60
2019-02-19T07:38:36.574Z,3.70
2019-02-19T07:39:41.326Z,3.70
2019-02-19T07:40:46.076Z,3.80
2019-02-19T07:41:50.802Z,3.80
2019-02-19T07:42:55.554Z,3.90
2019-02-19T07:44:00.363Z,3.90
2019-02-19T07:45:05.247Z,3.90
2019-02-19T07:46:10.076Z,4.00
2019-02-19T07:47:14.895Z,4.10
2019-02-19T07:48:19.649Z,4.10
2019-02-19T07:49:24.476Z,4.20
2019-02-19T07:50:29.231Z,4.30
2019-02-19T07:51:33.935Z,4.40
2019-02-19T07:52:38.678Z,4.40
2019-02-19T07:53:43.443Z,4.50
2019-02-19T07:54:48.205Z,4.70
2019-02-19T07:55:52.980Z,4.70
2019-02-19T07:56:57.692Z,4.70
2019-02-19T07:58:02.421Z,4.80
2019-02-19T07:59:07.204Z,4.90
2019-02-19T08:00:12.403Z,5.00
2019-02-19T08:01:17.122Z,5.10
2019-02-19T08:02:21.907Z,5.20
2019-02-19T08:03:26.815Z,5.20
2019-02-19T08:04:31.614Z,5.30
2019-02-19T08:05:36.716Z,5.40
2019-02-19T08:06:41.548Z,5.40
2019-02-19T08:07:49.091Z,5.60
2019-02-19T08:08:53.990Z,5.60
2019-02-19T08:09:58.918Z,5.60
2019-02-19T08:11:05.944Z,5.60
2019-02-19T08:12:10.988Z,5.70
2019-02-19T08:13:15.836Z,5.70
2019-02-19T08:14:20.984Z,5.70
2019-02-19T08:15:26.071Z,5.80
2019-02-19T08:16:31.240Z,5.80
2019-02-19T08:17:37.626Z,5.90
2019-02-19T08:18:42.544Z,5.90
2019-02-19T08:19:48.817Z,6.00
2019-02-19T08:20:53.754Z,6.00
2019-02-19T08:21:58.909Z,6.00
2019-02-19T08:23:03.865Z,6.10
2019-02-19T08:24:08.697Z,6.10
2019-02-19T08:25:13.459Z,6.20
2019-02-19T08:26:18.279Z,6.30
2019-02-19T08:27:23.042Z,6.30
2019-02-19T08:28:27.835Z,6.30
2019-02-19T08:29:32.676Z,6.40
2019-02-19T08:30:37.402Z,6.40
2019-02-19T08:31:42.173Z,6.40
2019-02-19T08:32:46.976Z,6.40
2019-02-19T08:33:51.881Z,6.40
2019-02-19T08:34:56.858Z,6.40
2019-02-19T08:36:01.803Z,6.40
2019-02-19T08:37:06.619Z,6.40
2019-02-19T08:38:11.525Z,6.40
2019-02-19T08:39:16.253Z,6.50
2019-02-19T08:40:22.910Z,6.50
2019-02-19T08:41:27.710Z,6.50
2019-02-19T08:42:32.594Z,6.60
2019-02-19T08:43:37.500Z,6.50
2019-02-19T08:44:42.584Z,6.60
2019-02-19T08:45:47.599Z,6.60
2019-02-19T08:46:52.664Z,6.60
2019-02-19T08:47:57.599Z,6.70
2019-02-19T08:49:02.506Z,6.70
2019-02-19T08:50:07.634Z,6.70
2019-02-19T08:51:12.544Z,6.70
2019-02-19T08:52:18.778Z,6.70
2019-02-19T08:53:24.174Z,6.70
2019-02-19T08:54:29.170Z,6.60
2019-02-19T08:55:34.890Z,6.60
2019-02-19T08:56:40.053Z,6.60
2019-02-19T08:57:44.989Z,6.50
2019-02-19T08:58:49.974Z,6.50
2019-02-19T08:59:55.093Z,6.50
2019-02-19T09:00:59.985Z,6.40
2019-02-19T09:02:04.901Z,6.40
2019-02-19T09:03:09.980Z,6.50
2019-02-19T09:04:14.739Z,6.60
2019-02-19T09:05:19.731Z,6.60
2019-02-19T09:06:24.724Z,6.60
2019-02-19T09:07:29.505Z,6.50
2019-02-19T09:08:34.582Z,6.60
2019-02-19T09:09:39.400Z,6.60
2019-02-19T09:10:44.463Z,6.60
2019-02-19T09:11:49.301Z,6.60
2019-02-19T09:12:54.115Z,6.60
2019-02-19T09:13:58.959Z,6.50
2019-02-19T09:15:03.750Z,6.50
2019-02-19T09:16:08.609Z,6.60
2019-02-19T09:17:13.522Z,6.60
2019-02-19T09:18:18.268Z,6.60
2019-02-19T09:19:23.041Z,6.70
2019-02-19T09:20:27.841Z,6.60
2019-02-19T09:21:32.641Z,6.60
2019-02-19T09:22:37.470Z,6.60
2019-02-19T09:23:42.428Z,6.50
2019-02-19T09:24:47.361Z,6.40
2019-02-19T09:25:52.128Z,6.40
2019-02-19T09:26:59.530Z,6.40
2019-02-19T09:28:04.288Z,6.40
2019-02-19T09:29:09.042Z,6.40
2019-02-19T09:30:14.073Z,6.40
2019-02-19T09:31:18.798Z,6.40
2019-02-19T09:32:23.558Z,6.40
2019-02-19T09:33:28.318Z,6.50
2019-02-19T09:34:33.083Z,6.50
2019-02-19T09:35:37.866Z,6.50
2019-02-19T09:36:42.590Z,6.50
2019-02-19T09:37:47.325Z,6.50
2019-02-19T09:38:52.097Z,6.60
2019-02-19T09:39:56.826Z,6.70
2019-02-19T09:41:01.566Z,6.70
2019-02-19T09:42:06.324Z,6.70
2019-02-19T09:43:11.065Z,6.80
2019-02-19T09:44:15.875Z,6.80
2019-02-19T09:45:20.644Z,6.90
2019-02-19T09:46:25.454Z,7.00
2019-02-19T09:47:30.236Z,7.00
2019-02-19T09:48:34.967Z,7.00
2019-02-19T09:49:39.719Z,7.00
2019-02-19T09:50:44.490Z,7.10
2019-02-19T09:51:49.266Z,7.20
2019-02-19T09:53:00.117Z,7.30
2019-02-19T09:54:00.498Z,7.30
2019-02-19T09:55:05.625Z,7.40
2019-02-19T09:56:10.590Z,7.40
2019-02-19T09:57:15.361Z,7.50
2019-02-19T09:58:20.183Z,7.60
2019-02-19T09:59:25.080Z,7.70
2019-02-19T10:00:30.102Z,7.90
2019-02-19T10:01:34.999Z,8.00
2019-02-19T10:02:39.804Z,8.10
2019-02-19T10:03:44.605Z,8.30
2019-02-19T10:04:49.477Z,8.30
2019-02-19T10:05:54.297Z,8.30
2019-02-19T10:06:59.126Z,8.40
2019-02-19T10:08:04.032Z,8.60
2019-02-19T10:09:09.990Z,8.60
2019-02-19T10:10:16.100Z,8.70
2019-02-19T10:11:20.921Z,8.80
2019-02-19T10:12:25.753Z,9.00
2019-02-19T10:13:30.660Z,9.00
2019-02-19T10:14:35.596Z,9.10
2019-02-19T10:15:40.505Z,9.20
2019-02-19T10:16:45.461Z,9.30
2019-02-19T10:17:50.352Z,9.30
2019-02-19T10:18:55.190Z,9.50
2019-02-19T10:20:00.025Z,9.50
2019-02-19T10:21:05.097Z,9.50
2019-02-19T10:22:10.031Z,9.50
2019-02-19T10:23:15.004Z,9.50
2019-02-19T10:24:19.716Z,9.60
2019-02-19T10:25:24.554Z,9.60
2019-02-19T10:26:29.407Z,9.50
2019-02-19T10:27:34.435Z,9.50
2019-02-19T10:28:39.614Z,9.40
2019-02-19T10:29:44.528Z,9.40
2019-02-19T10:30:49.339Z,9.40
2019-02-19T10:31:54.276Z,9.40
2019-02-19T10:32:59.143Z,9.40
2019-02-19T10:34:03.988Z,9.40
2019-02-19T10:35:09.688Z,9.40
2019-02-19T10:36:14.594Z,9.30
2019-02-19T10:37:19.613Z,9.20
2019-02-19T10:38:24.540Z,9.30
2019-02-19T10:39:29.308Z,9.20
2019-02-19T10:40:34.267Z,9.20
2019-02-19T10:41:39.258Z,9.10
2019-02-19T10:42:44.126Z,9.20
2019-02-19T10:43:49.012Z,9.10
2019-02-19T10:44:53.967Z,9.10
2019-02-19T10:45:59.048Z,9.10
2019-02-19T10:47:04.125Z,9.10
2019-02-19T10:48:09.073Z,9.10
2019-02-19T10:49:14.020Z,9.00
2019-02-19T10:50:19.447Z,9.00
2019-02-19T10:51:24.315Z,9.00
2019-02-19T10:52:29.233Z,8.90
2019-02-19T10:53:34.084Z,8.90
2019-02-19T10:54:39.045Z,8.90
2019-02-19T10:55:43.836Z,8.90
2019-02-19T10:56:48.705Z,9.00
2019-02-19T10:57:53.584Z,9.10
2019-02-19T10:58:58.533Z,9.20
2019-02-19T11:00:03.469Z,9.20
2019-02-19T11:01:08.320Z,9.20
2019-02-19T11:02:13.140Z,9.20
2019-02-19T11:03:17.924Z,9.10
2019-02-19T11:04:22.695Z,9.10
2019-02-19T11:05:27.503Z,9.10
2019-02-19T11:06:32.306Z,9.10
2019-02-19T11:07:37.121Z,9.10
2019-02-19T11:08:41.919Z,9.10
2019-02-19T11:09:46.720Z,9.20
2019-02-19T11:10:51.520Z,9.20
2019-02-19T11:11:58.075Z,9.20
2019-02-19T11:13:03.046Z,9.20
2019-02-19T11:14:07.852Z,9.20
2019-02-19T11:15:12.750Z,9.40
2019-02-19T11:16:17.510Z,9.50
2019-02-19T11:17:22.335Z,9.60
2019-02-19T11:18:28.730Z,9.60
2019-02-19T11:19:33.532Z,9.60
2019-02-19T11:20:38.299Z,9.50
2019-02-19T11:21:43.088Z,9.50
2019-02-19T11:22:47.929Z,9.60
2019-02-19T11:23:52.664Z,9.60
2019-02-19T11:24:57.366Z,9.50
2019-02-19T11:26:02.080Z,9.60
2019-02-19T11:27:06.886Z,9.80
2019-02-19T11:28:11.738Z,9.70
2019-02-19T11:29:16.535Z,9.60
2019-02-19T11:30:21.371Z,9.50
2019-02-19T11:31:26.166Z,9.60
2019-02-19T11:32:31.007Z,9.70
2019-02-19T11:33:35.775Z,9.80
2019-02-19T11:34:40.563Z,9.80
2019-02-19T11:35:45.428Z,9.90
2019-02-19T11:36:50.218Z,10.10
2019-02-19T11:37:55.054Z,10.20
2019-02-19T11:39:00.039Z,10.10
2019-02-19T11:40:05.048Z,10.20
2019-02-19T11:41:10.043Z,10.20
2019-02-19T11:42:14.812Z,10.10
2019-02-19T11:43:19.689Z,10.10
2019-02-19T11:44:24.468Z,10.00
2019-02-19T11:45:29.281Z,10.10
2019-02-19T11:46:34.150Z,10.10
2019-02-19T11:47:38.948Z,10.10
2019-02-19T11:48:43.781Z,10.00
2019-02-19T11:49:48.648Z,10.00
2019-02-19T11:50:53.482Z,9.90
2019-02-19T11:51:58.305Z,9.90
2019-02-19T11:53:03.119Z,10.00
2019-02-19T11:54:08.041Z,10.10
2019-02-19T11:55:13.610Z,10.10
2019-02-19T11:56:18.387Z,10.10
2019-02-19T11:57:23.282Z,10.10
2019-02-19T11:58:28.045Z,10.20
2019-02-19T11:59:32.895Z,10.30
2019-02-19T12:00:39.816Z,10.30
2019-02-19T12:01:44.779Z,10.40
2019-02-19T12:02:49.600Z,10.50
2019-02-19T12:03:54.401Z,10.60
2019-02-19T12:04:59.356Z,10.50
2019-02-19T12:06:04.129Z,10.40
2019-02-19T12:07:09.005Z,10.30
2019-02-19T12:08:14.740Z,10.20
2019-02-19T12:09:19.552Z,10.20
2019-02-19T12:10:24.438Z,10.20
2019-02-19T12:11:29.238Z,10.20
2019-02-19T12:12:34.041Z,10.20
2019-02-19T12:13:38.884Z,10.30
2019-02-19T12:14:43.662Z,10.30
2019-02-19T12:15:48.523Z,10.60
2019-02-19T12:16:53.475Z,10.70
2019-02-19T12:17:58.234Z,10.70
2019-02-19T12:19:02.992Z,10.70
2019-02-19T12:20:08.102Z,10.80
2019-02-19T12:21:12.878Z,10.70
2019-02-19T12:22:17.696Z,10.70
2019-02-19T12:23:22.507Z,10.60
2019-02-19T12:24:27.309Z,10.90
2019-02-19T12:25:32.106Z,11.10
2019-02-19T12:26:36.948Z,11.20
2019-02-19T12:27:41.957Z,11.20
2019-02-19T12:28:46.972Z,11.10
2019-02-19T12:29:51.827Z,11.00
2019-02-19T12:30:56.737Z,10.80
2019-02-19T12:32:01.620Z,10.80
2019-02-19T12:33:06.536Z,10.60
2019-02-19T12:34:11.569Z,10.40
2019-02-19T12:35:16.737Z,10.40
2019-02-19T12:36:21.781Z,10.20
2019-02-19T12:37:26.656Z,10.20
2019-02-19T12:38:31.532Z,10.10
2019-02-19T12:39:36.367Z,10.00
2019-02-19T12:40:41.231Z,9.80
2019-02-19T12:41:46.180Z,9.60
2019-02-19T12:42:53.435Z,9.30
2019-02-19T12:43:58.356Z,9.10
2019-02-19T12:45:03.405Z,8.90
2019-02-19T12:46:08.272Z,8.90
2019-02-19T12:47:13.334Z,8.80
2019-02-19T12:48:18.178Z,8.60
2019-02-19T12:49:23.189Z,8.40
2019-02-19T12:50:28.120Z,8.40
2019-02-19T12:51:33.192Z,8.30
2019-02-19T12:52:38.172Z,8.20
2019-02-19T12:53:43.091Z,8.00
2019-02-19T12:54:48.027Z,8.00
2019-02-19T12:55:53.532Z,7.90
2019-02-19T12:56:58.612Z,7.90
2019-02-19T12:58:03.760Z,7.90
2019-02-19T12:59:08.633Z,7.80
2019-02-19T13:00:15.587Z,7.80
2019-02-19T13:01:20.454Z,7.70
2019-02-19T13:02:25.348Z,7.70
2019-02-19T13:03:30.423Z,7.60
2019-02-19T13:04:35.589Z,7.60
2019-02-19T13:05:40.565Z,7.50
2019-02-19T13:06:45.588Z,7.50
2019-02-19T13:07:50.640Z,7.50
2019-02-19T13:08:55.676Z,7.50
2019-02-19T13:10:00.591Z,7.40
2019-02-19T13:11:05.614Z,7.30
2019-02-19T13:12:10.686Z,7.30
2019-02-19T13:13:15.913Z,7.30
2019-02-19T13:14:20.953Z,7.20
2019-02-19T13:15:25.915Z,7.10
2019-02-19T13:16:30.689Z,7.00
2019-02-19T13:17:35.559Z,7.00
2019-02-19T13:18:40.561Z,6.80
2019-02-19T13:19:45.353Z,6.80
2019-02-19T13:20:50.239Z,6.80
2019-02-19T13:21:55.158Z,6.70
2019-02-19T13:22:59.981Z,6.70
2019-02-19T13:24:04.858Z,6.70
2019-02-19T13:25:10.164Z,6.60
2019-02-19T13:26:15.291Z,6.60
2019-02-19T13:27:20.258Z,6.50
2019-02-19T13:28:25.071Z,6.40
2019-02-19T13:29:30.154Z,6.40
2019-02-19T13:30:35.126Z,6.40
2019-02-19T13:31:39.990Z,6.40
2019-02-19T13:32:44.979Z,6.30
2019-02-19T13:33:49.808Z,6.40
2019-02-19T13:34:54.686Z,6.40
2019-02-19T13:35:59.450Z,6.40
2019-02-19T13:37:04.431Z,6.40
2019-02-19T13:38:09.291Z,6.40
2019-02-19T13:39:14.125Z,6.30
2019-02-19T13:40:19.035Z,6.30
2019-02-19T13:41:23.847Z,6.30
2019-02-19T13:42:28.842Z,6.30
2019-02-19T13:43:33.673Z,6.30
2019-02-19T13:44:38.432Z,6.30
2019-02-19T13:45:43.197Z,6.30
2019-02-19T13:46:47.992Z,6.40
2019-02-19T13:47:52.967Z,6.40
2019-02-19T13:48:57.767Z,6.40
2019-02-19T13:50:02.697Z,6.40
2019-02-19T13:51:07.639Z,6.50
2019-02-19T13:52:22.593Z,6.40
2019-02-19T13:53:32.196Z,6.40
2019-02-19T13:54:41.900Z,6.50
2019-02-19T13:55:52.321Z,6.40
2019-02-19T13:56:57.334Z,6.50
2019-02-19T13:58:02.336Z,6.40
2019-02-19T13:59:07.633Z,6.40
2019-02-19T14:00:18.528Z,6.40
2019-02-19T14:01:23.588Z,6.40
2019-02-19T14:02:28.641Z,6.40
2019-02-19T14:03:33.551Z,6.40
2019-02-19T14:04:38.417Z,6.40
2019-02-19T14:05:43.361Z,6.40
2019-02-19T14:06:48.215Z,6.40
2019-02-19T14:07:53.082Z,6.40
2019-02-19T14:09:00.058Z,6.40
2019-02-19T14:10:04.972Z,6.40
2019-02-19T14:11:09.962Z,6.40
2019-02-19T14:12:14.719Z,6.40
2019-02-19T14:13:19.571Z,6.40
2019-02-19T14:14:35.926Z,6.40
2019-02-19T14:16:02.328Z,6.40